Terminal Aerodrome Forecast
Issued by NWS

Home | Current Version | Previous Version | Text Only | Print | Product List | Glossary Off
Versions: 1 2 3 4 5 6 7 8 9 10 11 12 13 14 15 16

273
FTUS43 KEAX 111127
TAFMKC
TAF
KMKC 111127Z 1112/1212 05007KT P6SM SKC
      TEMPO 1113/1115 BKN020
     FM111500 08006KT P6SM SCT040
     FM120100 15004KT P6SM SKC=

USA.gov is the U.S. government's official web portal to all federal, state and local government web resources and services.